Time;durP1;ratioP1;P1;durP2;ratioP2;P2;SDS_P1;SDS_P2;PMS_P1;PMS_P2;Temp;Humidity;BMP_temperature;BMP_pressure;BME280_temperature;BME280_humidity;BME280_pressure;Samples;Min_cycle;Max_cycle;Signal;HPM_P1;HPM_P2
2023/11/18 00:00:26;;;;;;;4.73;4.37;;;;;;;-144.99;100.00;67352.69;5079520;28;20238;-88
2023/11/18 00:02:51;;;;;;;13.73;9.57;;;;;;;-144.99;100.00;67352.69;5079935;28;20635;-87
2023/11/18 00:05:17;;;;;;;14.97;9.90;;;;;;;-144.99;100.00;67352.69;5079750;28;20193;-89
2023/11/18 00:07:43;;;;;;;7.13;4.80;;;;;;;-144.99;100.00;67352.69;5079230;28;20691;-88
2023/11/18 00:10:09;;;;;;;2.27;2.03;;;;;;;-144.99;100.00;67352.69;5098214;28;20186;-88
2023/11/18 00:12:36;;;;;;;1.80;1.70;;;;;;;-144.99;100.00;67352.69;5079484;28;20189;-88
2023/11/18 00:15:05;;;;;;;5.20;4.23;;;;;;;-144.99;100.00;67352.69;5077831;28;20644;-88
2023/11/18 00:17:31;;;;;;;3.07;2.87;;;;;;;-144.99;100.00;67352.69;5077758;28;20571;-88
2023/11/18 00:19:56;;;;;;;8.60;2.63;;;;;;;-144.99;100.00;67352.69;5077689;28;20193;-88
2023/11/18 00:22:22;;;;;;;3.10;2.90;;;;;;;-144.99;100.00;67352.69;5077847;28;20209;-88
2023/11/18 00:24:47;;;;;;;1.73;1.63;;;;;;;-144.99;100.00;67352.69;5077450;28;20181;-88
2023/11/18 00:27:13;;;;;;;2.93;2.67;;;;;;;-144.99;100.00;67352.69;5077575;28;20193;-88
2023/11/18 00:29:38;;;;;;;1.97;1.87;;;;;;;-144.99;100.00;67352.69;5077534;28;20181;-88
2023/11/18 00:32:04;;;;;;;2.27;2.17;;;;;;;-144.99;100.00;67352.69;5095867;28;20178;-88
2023/11/18 00:34:29;;;;;;;0.73;0.70;;;;;;;-144.99;100.00;67352.69;5095680;28;20181;-88
2023/11/18 00:36:58;;;;;;;0.53;0.53;;;;;;;-144.99;100.00;67352.69;5077010;28;20268;-88
2023/11/18 00:39:24;;;;;;;1.60;1.53;;;;;;;-144.99;100.00;67352.69;5077122;28;20186;-88
2023/11/18 00:41:49;;;;;;;1.20;1.20;;;;;;;-144.99;100.00;67352.69;5077116;28;20181;-87
2023/11/18 00:44:14;;;;;;;2.37;2.27;;;;;;;-144.99;100.00;67352.69;5077155;28;20191;-88
2023/11/18 00:46:40;;;;;;;2.27;2.17;;;;;;;-144.99;100.00;67352.69;5077129;28;20186;-88
2023/11/18 00:49:05;;;;;;;0.83;0.83;;;;;;;-144.99;100.00;67352.69;5077325;28;20682;-87
2023/11/18 00:51:31;;;;;;;0.10;0.10;;;;;;;-144.99;100.00;67352.69;5077322;28;20188;-88
2023/11/18 00:53:57;;;;;;;0.40;0.40;;;;;;;-144.99;100.00;67352.69;5076951;28;20185;-89
2023/11/18 00:56:22;;;;;;;0.00;0.00;;;;;;;-144.99;100.00;67352.69;5076985;28;20181;-89
2023/11/18 00:58:48;;;;;;;0.77;0.77;;;;;;;-144.99;100.00;67352.69;5095073;28;20237;-89
2023/11/18 01:01:17;;;;;;;1.67;1.63;;;;;;;-144.99;100.00;67352.69;5095017;28;20211;-88
2023/11/18 01:03:45;;;;;;;1.77;1.70;;;;;;;-144.99;100.00;67352.69;5061169;28;20209;-88
2023/11/18 01:06:11;;;;;;;4.43;2.83;;;;;;;-144.99;100.00;67352.69;5095264;28;20185;-88
2023/11/18 01:08:36;;;;;;;3.17;2.97;;;;;;;-144.99;100.00;67352.69;5077254;28;20231;-88
2023/11/18 01:11:04;;;;;;;6.33;5.73;;;;;;;-144.99;100.00;67352.69;5084028;28;20277;-87
2023/11/18 01:13:29;;;;;;;4.57;4.17;;;;;;;-144.99;100.00;67352.69;5086151;28;20228;-88
2023/11/18 01:15:54;;;;;;;8.73;6.17;;;;;;;-144.99;100.00;67352.69;5095221;28;20178;-89
2023/11/18 01:18:20;;;;;;;6.03;5.53;;;;;;;-144.99;100.00;67352.69;5077571;28;20202;-88
2023/11/18 01:20:46;;;;;;;5.03;4.70;;;;;;;-144.99;100.00;67352.69;5095031;28;20272;-88
2023/11/18 01:23:12;;;;;;;3.80;3.60;;;;;;;-144.99;100.00;67352.69;5077287;28;20233;-88
2023/11/18 01:25:37;;;;;;;3.37;2.87;;;;;;;-144.99;100.00;67352.69;5076997;28;20184;-90
2023/11/18 01:28:03;;;;;;;3.30;3.10;;;;;;;-144.99;100.00;67352.69;5076878;28;20206;-88
2023/11/18 01:30:29;;;;;;;5.27;4.77;;;;;;;-144.99;100.00;67352.69;5076916;28;20186;-88
2023/11/18 01:32:54;;;;;;;9.37;5.90;;;;;;;-144.99;100.00;67352.69;5076885;28;20231;-88
2023/11/18 01:35:19;;;;;;;2.23;2.10;;;;;;;-144.99;100.00;67352.69;5095208;28;20189;-88
2023/11/18 01:37:45;;;;;;;4.13;3.83;;;;;;;-144.99;100.00;67352.69;5076602;28;20205;-87
2023/11/18 01:40:15;;;;;;;1.80;1.70;;;;;;;-144.99;100.00;67352.69;5076617;28;20189;-88
2023/11/18 01:42:46;;;;;;;1.00;1.00;;;;;;;-144.99;100.00;67352.69;5077206;28;20202;-88
2023/11/18 01:45:14;;;;;;;1.00;1.00;;;;;;;-144.99;100.00;67352.69;5076528;28;20566;-88
2023/11/18 01:47:42;;;;;;;2.83;2.63;;;;;;;-144.99;100.00;67352.69;5095139;28;20251;-88
2023/11/18 01:50:11;;;;;;;4.03;3.10;;;;;;;-144.99;100.00;67352.69;5077741;28;20181;-87
2023/11/18 01:52:37;;;;;;;4.80;4.50;;;;;;;-144.99;100.00;67352.69;5094920;28;20517;-88
2023/11/18 01:55:06;;;;;;;10.03;3.20;;;;;;;-144.99;100.00;67352.69;5077279;28;20185;-89
2023/11/18 01:57:33;;;;;;;1.77;1.67;;;;;;;-144.99;100.00;67352.69;5077913;28;20205;-87
2023/11/18 01:59:58;;;;;;;7.00;6.40;;;;;;;-144.99;100.00;67352.69;5081429;28;20208;-90
2023/11/18 02:02:25;;;;;;;8.03;7.03;;;;;;;-144.99;100.00;67352.69;5099462;28;20198;-90
2023/11/18 02:04:50;;;;;;;7.70;5.80;;;;;;;-144.99;100.00;67352.69;5100007;28;20189;-89
2023/11/18 02:07:16;;;;;;;10.37;9.47;;;;;;;-144.99;100.00;67352.69;5100067;28;20178;-88
2023/11/18 02:09:42;;;;;;;8.00;7.30;;;;;;;-144.99;100.00;67352.69;5117503;28;20166;-88
2023/11/18 02:12:34;;;;;;;2.50;2.40;;;;;;;-144.99;100.00;67352.69;5112788;28;20182;-88
2023/11/18 02:15:03;;;;;;;3.63;3.43;;;;;;;-144.99;100.00;67352.69;5098968;28;20184;-86
2023/11/18 02:17:31;;;;;;;10.03;6.73;;;;;;;-144.99;100.00;67352.69;5097354;28;20596;-89
2023/11/18 02:19:57;;;;;;;7.00;6.30;;;;;;;-144.99;100.00;67352.69;5079729;28;20185;-88
2023/11/18 02:22:24;;;;;;;6.73;6.17;;;;;;;-144.99;100.00;67352.69;5097031;28;20208;-87
2023/11/18 02:24:50;;;;;;;4.27;3.97;;;;;;;-144.99;100.00;67352.69;5079204;28;20185;-88
2023/11/18 02:27:16;;;;;;;6.90;6.50;;;;;;;-144.99;100.00;67352.69;5096780;28;20188;-87
2023/11/18 02:29:45;;;;;;;7.33;4.73;;;;;;;-144.99;100.00;67352.69;5077976;28;20193;-88
2023/11/18 02:32:22;;;;;;;10.60;9.40;;;;;;;-144.99;100.00;67352.69;5081701;28;20186;-87
2023/11/18 02:35:10;;;;;;;10.37;9.37;;;;;;;-144.99;100.00;67352.69;5082494;28;20280;-87
2023/11/18 02:37:43;;;;;;;13.93;5.37;;;;;;;-144.99;100.00;67352.69;5100178;28;20209;-88
2023/11/18 02:40:14;;;;;;;17.00;12.83;;;;;;;-144.99;100.00;67352.69;5073794;28;20189;-86
2023/11/18 02:42:42;;;;;;;13.70;8.90;;;;;;;-144.99;100.00;67352.69;5100182;28;20205;-86
2023/11/18 02:45:10;;;;;;;10.30;9.30;;;;;;;-144.99;100.00;67352.69;5081592;28;20221;-88
2023/11/18 02:47:36;;;;;;;8.03;7.23;;;;;;;-144.99;100.00;67352.69;5082187;28;20265;-88
2023/11/18 02:50:05;;;;;;;11.63;10.53;;;;;;;-144.99;100.00;67352.69;5081077;28;20276;-86
2023/11/18 02:52:30;;;;;;;14.93;8.20;;;;;;;-144.99;100.00;67352.69;5099421;28;20178;-87
2023/11/18 02:54:55;;;;;;;5.13;4.73;;;;;;;-144.99;100.00;67352.69;5081291;28;20190;-87
2023/11/18 02:57:23;;;;;;;6.03;5.60;;;;;;;-144.99;100.00;67352.69;5080917;28;20266;-87
2023/11/18 02:59:49;;;;;;;6.90;5.83;;;;;;;-144.99;100.00;67352.69;5080842;28;20216;-87
2023/11/18 03:02:15;;;;;;;10.23;9.33;;;;;;;-144.99;100.00;67352.69;5099254;28;20193;-86
2023/11/18 03:04:44;;;;;;;5.57;5.03;;;;;;;-144.99;100.00;67352.69;5081154;28;20276;-88
2023/11/18 03:07:10;;;;;;;6.47;5.07;;;;;;;-144.99;100.00;67352.69;5099264;28;20651;-87
2023/11/18 03:09:36;;;;;;;3.20;3.00;;;;;;;-144.99;100.00;67352.69;5099199;28;20188;-87
2023/11/18 03:12:02;;;;;;;5.87;4.37;;;;;;;-144.99;100.00;67352.69;5080802;28;20181;-87
2023/11/18 03:14:28;;;;;;;7.20;6.70;;;;;;;-144.99;100.00;67352.69;5098839;28;20204;-87
2023/11/18 03:16:55;;;;;;;1.40;0.93;;;;;;;-144.99;100.00;67352.69;5079110;28;20272;-87
2023/11/18 03:19:21;;;;;;;0.00;0.00;;;;;;;-144.99;100.00;67352.69;5079105;28;20205;-87
2023/11/18 03:21:53;;;;;;;0.63;0.63;;;;;;;-144.99;100.00;67352.69;5079230;28;20181;-87
2023/11/18 03:24:18;;;;;;;1.20;1.13;;;;;;;-144.99;100.00;67352.69;5078939;28;20674;-85
2023/11/18 03:26:43;;;;;;;7.57;4.70;;;;;;;-144.99;100.00;67352.69;5079467;28;20253;-88
2023/11/18 03:29:10;;;;;;;3.13;2.83;;;;;;;-144.99;100.00;67352.69;5080278;28;20213;-88
2023/11/18 03:31:36;;;;;;;4.50;4.13;;;;;;;-144.99;100.00;67352.69;5079100;28;20610;-88
2023/11/18 03:34:01;;;;;;;9.70;5.83;;;;;;;-144.99;100.00;67352.69;5078993;28;20658;-87
2023/11/18 03:36:27;;;;;;;8.80;5.53;;;;;;;-144.99;100.00;67352.69;5092967;28;20178;-88
2023/11/18 03:38:52;;;;;;;3.87;3.63;;;;;;;-144.99;100.00;67352.69;5092413;28;20226;-89
2023/11/18 03:41:18;;;;;;;1.40;1.40;;;;;;;-144.99;100.00;67352.69;5076206;28;20181;-88
2023/11/18 03:43:43;;;;;;;2.87;2.67;;;;;;;-144.99;100.00;67352.69;5077209;28;20201;-88
2023/11/18 03:46:10;;;;;;;4.80;4.50;;;;;;;-144.99;100.00;67352.69;5095836;28;20189;-89
2023/11/18 03:48:35;;;;;;;3.90;3.70;;;;;;;-144.99;100.00;67352.69;5077207;28;20242;-88
2023/11/18 03:51:03;;;;;;;12.67;3.30;;;;;;;-144.99;100.00;67352.69;5095015;28;20262;-87
2023/11/18 03:53:28;;;;;;;4.90;4.47;;;;;;;-144.99;100.00;67352.69;5094785;28;20177;-88
2023/11/18 03:55:54;;;;;;;7.80;7.00;;;;;;;-144.99;100.00;67352.69;5076696;28;20186;-87
2023/11/18 03:58:19;;;;;;;1.27;1.27;;;;;;;-144.99;100.00;67352.69;5094780;28;20611;-89
2023/11/18 04:00:44;;;;;;;7.67;5.30;;;;;;;-144.99;100.00;67352.69;5077285;28;20647;-89
2023/11/18 04:03:09;;;;;;;12.53;8.50;;;;;;;-144.99;100.00;67352.69;5094864;28;20197;-87
2023/11/18 04:05:35;;;;;;;5.67;5.37;;;;;;;-144.99;100.00;67352.69;5095940;28;20557;-89
2023/11/18 04:08:01;;;;;;;10.23;9.23;;;;;;;-144.99;100.00;67352.69;5096012;28;20213;-87
2023/11/18 04:10:27;;;;;;;18.17;4.80;;;;;;;-144.99;100.00;67352.69;5079060;28;20185;-88
2023/11/18 04:12:52;;;;;;;7.07;6.50;;;;;;;-144.99;100.00;67352.69;5079633;28;20675;-88
2023/11/18 04:15:17;;;;;;;6.30;5.83;;;;;;;-144.99;100.00;67352.69;5079289;28;20243;-88
2023/11/18 04:17:44;;;;;;;6.63;6.13;;;;;;;-144.99;100.00;67352.69;5078339;28;20244;-89
2023/11/18 04:20:11;;;;;;;11.40;7.70;;;;;;;-144.99;100.00;67352.69;5078820;28;20182;-88
2023/11/18 04:22:43;;;;;;;8.30;7.43;;;;;;;-144.99;100.00;67352.69;5079434;28;20233;-88
2023/11/18 04:25:12;;;;;;;4.93;3.27;;;;;;;-144.99;100.00;67352.69;5079555;28;20288;-87
2023/11/18 04:27:40;;;;;;;0.57;0.57;;;;;;;-144.99;100.00;67352.69;5077181;28;20632;-88
2023/11/18 04:30:06;;;;;;;4.00;3.70;;;;;;;-144.99;100.00;67352.69;5076949;28;20208;-88
2023/11/18 04:32:34;;;;;;;9.97;7.43;;;;;;;-144.99;100.00;67352.69;5094994;28;20257;-88
2023/11/18 04:35:06;;;;;;;4.47;4.17;;;;;;;-144.99;100.00;67352.69;5095608;28;20181;-88
2023/11/18 04:37:32;;;;;;;3.70;3.50;;;;;;;-144.99;100.00;67352.69;5095156;28;20201;-88
2023/11/18 04:39:57;;;;;;;1.30;1.30;;;;;;;-144.99;100.00;67352.69;5094316;28;20174;-88
2023/11/18 04:42:22;;;;;;;11.73;7.20;;;;;;;-144.99;100.00;67352.69;5087760;28;20206;-88
2023/11/18 04:44:48;;;;;;;3.73;3.53;;;;;;;-144.99;100.00;67352.69;5076273;28;20174;-88
2023/11/18 04:47:13;;;;;;;3.60;2.43;;;;;;;-144.99;100.00;67352.69;5094672;28;20259;-88
2023/11/18 04:49:39;;;;;;;4.90;4.40;;;;;;;-144.99;100.00;67352.69;5083264;28;20275;-88
2023/11/18 04:52:04;;;;;;;5.67;5.10;;;;;;;-144.99;100.00;67352.69;5093714;28;20535;-88
2023/11/18 04:54:29;;;;;;;3.93;3.63;;;;;;;-144.99;100.00;67352.69;5096744;28;20185;-88
2023/11/18 04:56:55;;;;;;;9.57;4.80;;;;;;;-144.99;100.00;67352.69;5098992;28;20184;-88
2023/11/18 04:59:21;;;;;;;2.77;2.53;;;;;;;-144.99;100.00;67352.69;5080300;28;20608;-88
2023/11/18 05:01:46;;;;;;;8.60;7.20;;;;;;;-144.99;100.00;67352.69;5079965;28;20608;-88
2023/11/18 05:04:12;;;;;;;2.17;2.07;;;;;;;-144.99;100.00;67352.69;5096227;28;20206;-88
2023/11/18 05:06:37;;;;;;;4.63;4.10;;;;;;;-144.99;100.00;67352.69;5075528;28;20235;-88
2023/11/18 05:09:07;;;;;;;18.03;10.57;;;;;;;-144.99;100.00;67352.69;5095328;28;20212;-88
2023/11/18 05:11:32;;;;;;;7.77;7.30;;;;;;;-144.99;100.00;67352.69;5098383;28;20182;-88
2023/11/18 05:13:59;;;;;;;7.47;5.33;;;;;;;-144.99;100.00;67352.69;5079636;28;20201;-88
2023/11/18 05:16:24;;;;;;;8.53;7.67;;;;;;;-144.99;100.00;67352.69;5079104;28;20182;-88
2023/11/18 05:18:49;;;;;;;23.23;12.97;;;;;;;-144.99;100.00;67352.69;5096370;28;20200;-87
2023/11/18 05:21:15;;;;;;;23.63;10.07;;;;;;;-144.99;100.00;67352.69;5093555;28;20199;-87
2023/11/18 05:23:40;;;;;;;10.40;7.63;;;;;;;-144.99;100.00;67352.69;5076535;28;20205;-89
2023/11/18 05:26:05;;;;;;;19.43;10.03;;;;;;;-144.99;100.00;67352.69;5097470;28;20307;-88
2023/11/18 05:28:32;;;;;;;19.47;12.37;;;;;;;-144.99;100.00;67352.69;5096302;28;20225;-87
2023/11/18 05:31:02;;;;;;;13.10;11.47;;;;;;;-144.99;100.00;67352.69;5075561;28;20174;-87
2023/11/18 05:33:28;;;;;;;8.77;7.97;;;;;;;-144.99;100.00;67352.69;5075587;28;20557;-87
2023/11/18 05:35:54;;;;;;;21.67;12.23;;;;;;;-144.99;100.00;67352.69;5093252;28;20666;-87
2023/11/18 05:38:21;;;;;;;8.30;7.47;;;;;;;-144.99;100.00;67352.69;5075665;28;20265;-88
2023/11/18 05:40:56;;;;;;;13.67;10.33;;;;;;;-144.99;100.00;67352.69;5078326;28;20186;-89
2023/11/18 05:43:29;;;;;;;23.33;7.00;;;;;;;-144.99;100.00;67352.69;5078311;28;20201;-88
2023/11/18 05:48:38;;;;;;;4.37;3.97;;;;;;;-144.99;100.00;67352.69;5095484;28;20228;-87
2023/11/18 05:51:04;;;;;;;1.60;1.60;;;;;;;-144.99;100.00;67352.69;5093075;28;20209;-87
2023/11/18 05:53:30;;;;;;;1.70;1.70;;;;;;;-144.99;100.00;67352.69;5075579;28;20178;-88
2023/11/18 05:55:55;;;;;;;4.50;2.57;;;;;;;-144.99;100.00;67352.69;5077196;28;20640;-88
2023/11/18 05:58:20;;;;;;;1.50;1.40;;;;;;;-144.99;100.00;67352.69;5077070;28;20288;-87
2023/11/18 06:00:47;;;;;;;5.30;5.10;;;;;;;-144.99;100.00;67352.69;5075231;28;20230;-87
2023/11/18 06:03:12;;;;;;;20.47;5.30;;;;;;;-144.99;100.00;67352.69;5093130;28;20233;-87
2023/11/18 06:05:38;;;;;;;2.93;2.73;;;;;;;-144.99;100.00;67352.69;5076692;28;20212;-88
2023/11/18 06:08:04;;;;;;;4.77;4.43;;;;;;;-144.99;100.00;67352.69;5078623;28;20220;-89
2023/11/18 06:10:32;;;;;;;4.80;4.53;;;;;;;-144.99;100.00;67352.69;5099700;28;20238;-88
2023/11/18 06:13:00;;;;;;;6.30;3.70;;;;;;;-144.99;100.00;67352.69;5080511;28;20173;-88
2023/11/18 06:15:25;;;;;;;4.37;2.90;;;;;;;-144.99;100.00;67352.69;5098289;28;20635;-87
2023/11/18 06:17:51;;;;;;;4.97;4.60;;;;;;;-144.99;100.00;67352.69;5079477;28;20205;-88
2023/11/18 06:20:17;;;;;;;2.97;2.87;;;;;;;-144.99;100.00;67352.69;5078430;28;20185;-87
2023/11/18 06:22:42;;;;;;;11.47;4.47;;;;;;;-144.99;100.00;67352.69;5096795;28;20200;-88
2023/11/18 06:25:08;;;;;;;6.07;3.93;;;;;;;-144.99;100.00;67352.69;5078464;28;20178;-87
2023/11/18 06:27:34;;;;;;;3.40;3.20;;;;;;;-144.99;100.00;67352.69;5096481;28;20290;-88
2023/11/18 06:29:59;;;;;;;0.50;0.50;;;;;;;-144.99;100.00;67352.69;5096633;28;20181;-88
2023/11/18 06:32:27;;;;;;;3.53;3.43;;;;;;;-144.99;100.00;67352.69;5078399;28;20173;-87
2023/11/18 06:34:53;;;;;;;0.47;0.47;;;;;;;-144.99;100.00;67352.69;5078606;28;20216;-88
2023/11/18 06:37:19;;;;;;;1.50;1.50;;;;;;;-144.99;100.00;67352.69;5078109;28;20209;-88
2023/11/18 06:39:47;;;;;;;4.17;2.87;;;;;;;-144.99;100.00;67352.69;5078041;28;20213;-88
2023/11/18 06:42:13;;;;;;;0.40;0.40;;;;;;;-144.99;100.00;67352.69;5078180;28;20302;-88
2023/11/18 06:44:39;;;;;;;1.63;1.60;;;;;;;-144.99;100.00;67352.69;5096428;28;20711;-88
2023/11/18 06:47:06;;;;;;;2.63;2.53;;;;;;;-144.99;100.00;67352.69;5096032;28;20212;-89
2023/11/18 06:49:34;;;;;;;4.50;2.03;;;;;;;-144.99;100.00;67352.69;5078250;28;20623;-88
2023/11/18 06:52:03;;;;;;;4.47;3.60;;;;;;;-144.99;100.00;67352.69;5078086;28;20205;-88
2023/11/18 06:54:29;;;;;;;2.20;1.97;;;;;;;-144.99;100.00;67352.69;5078295;28;20556;-88
2023/11/18 06:57:03;;;;;;;4.43;4.03;;;;;;;-144.99;100.00;67352.69;5080061;28;20188;-88
2023/11/18 06:59:29;;;;;;;5.20;4.77;;;;;;;-144.99;100.00;67352.69;5080345;28;20223;-87
2023/11/18 07:01:54;;;;;;;3.37;3.17;;;;;;;-144.99;100.00;67352.69;5098594;28;20544;-89
2023/11/18 07:04:19;;;;;;;5.07;4.67;;;;;;;-144.99;100.00;67352.69;5080489;28;20181;-90
2023/11/18 07:06:44;;;;;;;0.80;0.80;;;;;;;-144.99;100.00;67352.69;5079824;28;20269;-89
2023/11/18 07:09:13;;;;;;;2.77;1.97;;;;;;;-144.99;100.00;67352.69;5098075;28;20292;-87
2023/11/18 07:11:40;;;;;;;3.93;3.70;;;;;;;-144.99;100.00;67352.69;5080219;28;20205;-88
2023/11/18 07:14:08;;;;;;;1.60;1.50;;;;;;;-144.99;100.00;67352.69;5079705;28;20188;-90
2023/11/18 07:16:35;;;;;;;0.00;0.00;;;;;;;-144.99;100.00;67352.69;5099450;28;20237;-88
2023/11/18 07:19:00;;;;;;;6.57;6.17;;;;;;;-144.99;100.00;67352.69;5098226;28;20200;-87
2023/11/18 07:21:25;;;;;;;5.50;2.63;;;;;;;-144.99;100.00;67352.69;5079711;28;20184;-87
2023/11/18 07:23:51;;;;;;;0.10;0.10;;;;;;;-144.99;100.00;67352.69;5079204;28;20687;-88
2023/11/18 07:26:16;;;;;;;0.00;0.00;;;;;;;-144.99;100.00;67352.69;5078631;28;20184;-89
2023/11/18 07:28:43;;;;;;;0.00;0.00;;;;;;;-144.99;100.00;67352.69;5097088;28;20260;-88
2023/11/18 07:31:09;;;;;;;0.10;0.10;;;;;;;-144.99;100.00;67352.69;5097169;28;20544;-88
2023/11/18 07:33:34;;;;;;;0.00;0.00;;;;;;;-144.99;100.00;67352.69;5097034;28;20178;-88
2023/11/18 07:35:59;;;;;;;0.00;0.00;;;;;;;-144.99;100.00;67352.69;5078390;28;20234;-88
2023/11/18 07:38:27;;;;;;;0.30;0.30;;;;;;;-144.99;100.00;67352.69;5078379;28;20286;-89
2023/11/18 07:40:56;;;;;;;0.17;0.17;;;;;;;-144.99;100.00;67352.69;5075043;28;20184;-88
2023/11/18 07:43:21;;;;;;;0.47;0.40;;;;;;;-144.99;100.00;67352.69;5078491;28;20605;-88
2023/11/18 07:45:49;;;;;;;2.33;2.23;;;;;;;-144.99;100.00;67352.69;5092442;28;20181;-88
2023/11/18 07:48:17;;;;;;;0.00;0.00;;;;;;;-144.99;100.00;67352.69;5069889;28;20209;-88
2023/11/18 07:50:44;;;;;;;1.37;1.37;;;;;;;-144.99;100.00;67352.69;5097018;28;20196;-89
2023/11/18 07:53:10;;;;;;;0.00;0.00;;;;;;;-144.99;100.00;67352.69;5070038;28;20221;-89
2023/11/18 07:55:39;;;;;;;0.30;0.30;;;;;;;-144.99;100.00;67352.69;5078505;28;20187;-89
2023/11/18 07:58:04;;;;;;;2.97;2.77;;;;;;;-144.99;100.00;67352.69;5070532;28;20633;-88
2023/11/18 08:00:30;;;;;;;1.80;1.80;;;;;;;-144.99;100.00;67352.69;5077729;28;20198;-88
2023/11/18 08:02:57;;;;;;;11.87;6.07;;;;;;;-144.99;100.00;67352.69;5070948;28;20208;-88
2023/11/18 08:05:22;;;;;;;3.80;3.53;;;;;;;-144.99;100.00;67352.69;5080393;28;20188;-87
2023/11/18 08:07:49;;;;;;;10.83;7.33;;;;;;;-144.99;100.00;67352.69;5079845;28;20209;-88
2023/11/18 08:10:18;;;;;;;6.87;3.10;;;;;;;-144.99;100.00;67352.69;5090065;22;20321;-88
2023/11/18 08:12:44;;;;;;;0.40;0.40;;;;;;;-144.99;100.00;67352.69;5067995;28;20243;-88
2023/11/18 08:15:10;;;;;;;0.73;0.73;;;;;;;-144.99;100.00;67352.69;5077329;28;20225;-89
2023/11/18 08:17:35;;;;;;;0.93;0.93;;;;;;;-144.99;100.00;67352.69;5064557;28;20245;-89
2023/11/18 08:20:01;;;;;;;7.03;5.13;;;;;;;-144.99;100.00;67352.69;5061516;28;20640;-89
2023/11/18 08:22:27;;;;;;;5.03;4.23;;;;;;;-144.99;100.00;67352.69;5046706;28;20198;-88
2023/11/18 08:24:53;;;;;;;1.43;1.33;;;;;;;-144.99;100.00;67352.69;5055709;28;20193;-89
2023/11/18 08:27:19;;;;;;;2.90;2.70;;;;;;;-144.99;100.00;67352.69;5064953;28;20179;-88
2023/11/18 08:29:48;;;;;;;1.83;1.70;;;;;;;-144.99;100.00;67352.69;5072405;28;20206;-89
2023/11/18 08:32:13;;;;;;;0.87;0.87;;;;;;;-144.99;100.00;67352.69;5050916;28;20198;-89
2023/11/18 08:34:40;;;;;;;0.50;0.47;;;;;;;-144.99;100.00;67352.69;5059448;28;20221;-90
2023/11/18 08:37:06;;;;;;;6.70;4.83;;;;;;;-144.99;100.00;67352.69;5051557;28;20554;-89
2023/11/18 08:39:32;;;;;;;11.07;6.77;;;;;;;-144.99;100.00;67352.69;5051934;28;20210;-85
2023/11/18 08:42:07;;;;;;;0.00;0.00;;;;;;;-144.99;100.00;67352.69;5051578;28;20648;-86
2023/11/18 08:44:32;;;;;;;0.00;0.00;;;;;;;-144.99;100.00;67352.69;5046569;28;20187;-85
2023/11/18 08:46:58;;;;;;;8.10;5.33;;;;;;;-144.99;100.00;67352.69;5077502;28;20174;-87
2023/11/18 08:49:25;;;;;;;4.00;3.70;;;;;;;-144.99;100.00;67352.69;5063330;28;20198;-88
2023/11/18 08:51:55;;;;;;;0.53;0.53;;;;;;;-144.99;100.00;67352.69;5061998;28;20182;-88
2023/11/18 08:54:29;;;;;;;8.07;6.23;;;;;;;-144.99;100.00;67352.69;5074437;28;20712;-88
2023/11/18 08:56:59;;;;;;;5.43;5.03;;;;;;;-144.99;100.00;67352.69;5061786;28;20174;-90
2023/11/18 08:59:27;;;;;;;10.50;4.30;;;;;;;-144.99;100.00;67352.69;5079832;28;20194;-88
2023/11/18 09:01:58;;;;;;;9.83;8.00;;;;;;;-144.99;100.00;67352.69;5080156;28;20186;-90
2023/11/18 09:04:25;;;;;;;0.10;0.10;;;;;;;-144.99;100.00;67352.69;5073160;28;20189;-88
2023/11/18 09:06:53;;;;;;;3.03;2.93;;;;;;;-144.99;100.00;67352.69;5071922;28;20170;-90
2023/11/18 09:09:26;;;;;;;2.63;2.53;;;;;;;-144.99;100.00;67352.69;5072568;28;20212;-91
2023/11/18 09:11:56;;;;;;;22.20;11.87;;;;;;;-144.99;100.00;67352.69;5091822;22;20577;-77
2023/11/18 09:14:24;;;;;;;14.37;8.47;;;;;;;-144.99;100.00;67352.69;5056288;28;20216;-77
2023/11/18 09:16:50;;;;;;;7.60;6.67;;;;;;;-144.99;100.00;67352.69;5074297;28;20229;-79
2023/11/18 09:19:16;;;;;;;9.27;4.53;;;;;;;-144.99;100.00;67352.69;5055959;28;20186;-78
2023/11/18 09:21:42;;;;;;;3.60;3.27;;;;;;;-144.99;100.00;67352.69;5072291;28;20669;-76
2023/11/18 09:24:12;;;;;;;14.00;10.93;;;;;;;-144.99;100.00;67352.69;5071666;28;20249;-77
2023/11/18 09:26:37;;;;;;;5.90;4.37;;;;;;;-144.99;100.00;67352.69;5072392;28;20242;-77
2023/11/18 09:29:03;;;;;;;0.73;0.73;;;;;;;-144.99;100.00;67352.69;5082094;28;20657;-77
2023/11/18 09:31:28;;;;;;;0.00;0.00;;;;;;;-144.99;100.00;67352.69;5078288;28;20554;-78
2023/11/18 09:33:54;;;;;;;2.93;2.67;;;;;;;-144.99;100.00;67352.69;5092103;28;20284;-76
2023/11/18 09:36:20;;;;;;;0.27;0.27;;;;;;;-144.99;100.00;67352.69;5077649;28;20190;-77
2023/11/18 09:38:53;;;;;;;0.93;0.93;;;;;;;-144.99;100.00;67352.69;5058345;28;20185;-77
2023/11/18 09:41:19;;;;;;;3.33;2.67;;;;;;;-144.99;100.00;67352.69;5092204;28;20186;-77
2023/11/18 09:43:46;;;;;;;8.03;5.10;;;;;;;-144.99;100.00;67352.69;5070414;28;20230;-77
2023/11/18 09:46:23;;;;;;;10.07;4.53;;;;;;;-144.99;100.00;67352.69;5072965;28;20189;-77
2023/11/18 09:48:52;;;;;;;13.50;6.03;;;;;;;-144.99;100.00;67352.69;5078055;28;20184;-77
2023/11/18 09:51:32;;;;;;;3.23;3.03;;;;;;;-144.99;100.00;67352.69;5091808;28;20191;-76
2023/11/18 09:54:05;;;;;;;0.27;0.20;;;;;;;-144.99;100.00;67352.69;5078114;28;20198;-77
2023/11/18 09:57:13;;;;;;;0.40;0.40;;;;;;;-144.99;100.00;67352.69;5091791;28;20187;-77
2023/11/18 10:00:26;;;;;;;0.43;0.43;;;;;;;-144.99;100.00;67352.69;5053531;28;20555;-77
2023/11/18 10:02:52;;;;;;;1.43;1.43;;;;;;;-144.99;100.00;67352.69;5064454;28;20210;-78
2023/11/18 10:05:20;;;;;;;0.10;0.10;;;;;;;-144.99;100.00;67352.69;5071644;28;20189;-77
2023/11/18 10:07:47;;;;;;;1.27;0.97;;;;;;;-144.99;100.00;67352.69;5065637;28;20179;-77
2023/11/18 10:10:15;;;;;;;0.57;0.57;;;;;;;-144.99;100.00;67352.69;5070870;28;20190;-77
2023/11/18 10:12:44;;;;;;;0.20;0.20;;;;;;;-144.99;100.00;67352.69;5066649;28;20238;-77
2023/11/18 10:15:14;;;;;;;0.57;0.57;;;;;;;-144.99;100.00;67352.69;5053832;28;20178;-76
2023/11/18 10:20:41;;;;;;;0.47;0.37;;;;;;;-144.99;100.00;67352.69;5065838;28;20690;-77
2023/11/18 10:23:11;;;;;;;0.30;0.30;;;;;;;-144.99;100.00;67352.69;5073205;28;20291;-77
2023/11/18 10:25:56;;;;;;;0.00;0.00;;;;;;;-144.99;100.00;67352.69;5092380;28;20185;-77
2023/11/18 10:28:27;;;;;;;0.83;0.73;;;;;;;-144.99;100.00;67352.69;5092143;28;20181;-76
2023/11/18 10:30:57;;;;;;;1.23;1.23;;;;;;;-144.99;100.00;67352.69;5091605;28;20238;-77
2023/11/18 10:33:30;;;;;;;0.00;0.00;;;;;;;-144.99;100.00;67352.69;5088510;28;20273;-77
2023/11/18 10:35:55;;;;;;;1.67;1.53;;;;;;;-144.99;100.00;67352.69;5088884;28;20521;-77
2023/11/18 10:38:25;;;;;;;1.80;1.10;;;;;;;-144.99;100.00;67352.69;5070997;28;20197;-77
2023/11/18 10:40:53;;;;;;;2.50;2.40;;;;;;;-144.99;100.00;67352.69;5053848;28;20557;-77
2023/11/18 10:43:18;;;;;;;0.00;0.00;;;;;;;-144.99;100.00;67352.69;5068745;28;20290;-77
2023/11/18 10:45:46;;;;;;;10.07;1.33;;;;;;;-144.99;100.00;67352.69;5071697;28;20213;-77
2023/11/18 10:48:16;;;;;;;0.00;0.00;;;;;;;-144.99;100.00;67352.69;5086019;28;20177;-77
2023/11/18 10:50:42;;;;;;;0.00;0.00;;;;;;;-144.99;100.00;67352.69;5092623;28;20199;-77
2023/11/18 10:53:11;;;;;;;1.00;1.00;;;;;;;-144.99;100.00;67352.69;5091015;28;20605;-77
2023/11/18 10:55:43;;;;;;;1.97;1.87;;;;;;;-144.99;100.00;67352.69;5095853;28;20181;-77
2023/11/18 10:58:09;;;;;;;1.63;1.53;;;;;;;-144.99;100.00;67352.69;5091359;28;20186;-77
2023/11/18 11:00:51;;;;;;;7.80;3.40;;;;;;;-144.99;100.00;67352.69;5095577;28;20185;-77
2023/11/18 11:03:18;;;;;;;0.37;0.37;;;;;;;-144.99;100.00;67352.69;5091600;28;20201;-77
2023/11/18 11:05:44;;;;;;;7.67;1.80;;;;;;;-144.99;100.00;67352.69;5076776;28;20189;-77
2023/11/18 11:08:13;;;;;;;3.73;2.50;;;;;;;-144.99;100.00;67352.69;5091972;28;20192;-77
2023/11/18 11:10:45;;;;;;;0.10;0.10;;;;;;;-144.99;100.00;67352.69;5094897;28;20646;-77
2023/11/18 11:13:15;;;;;;;0.00;0.00;;;;;;;-144.99;100.00;67352.69;5092467;28;20202;-77